Time;durP1;ratioP1;P1;durP2;ratioP2;P2;SDS_P1;SDS_P2;PMS_P1;PMS_P2;Temp;Humidity;BMP_temperature;BMP_pressure;BME280_temperature;BME280_humidity;BME280_pressure;Samples;Min_cycle;Max_cycle;Signal;HPM_P1;HPM_P2
2021/08/04 00:00:34;;;;;;;6.77;3.00;;;13.40;99.90;;;;;;5031149;28;20175;-58
2021/08/04 00:03:00;;;;;;;6.83;3.00;;;13.30;99.90;;;;;;5031752;28;20179;-58
2021/08/04 00:05:26;;;;;;;2.73;2.53;;;13.30;99.90;;;;;;5026589;28;20504;-59
2021/08/04 00:07:51;;;;;;;4.40;3.10;;;13.30;99.90;;;;;;5031742;28;20874;-57
2021/08/04 00:10:19;;;;;;;3.90;2.77;;;13.30;99.90;;;;;;5032333;28;20198;-57
2021/08/04 00:12:45;;;;;;;3.57;2.67;;;13.20;99.90;;;;;;5027106;28;20211;-58
2021/08/04 00:15:13;;;;;;;4.47;2.87;;;13.20;99.90;;;;;;5028753;28;20914;-58
2021/08/04 00:17:40;;;;;;;9.13;2.60;;;13.20;99.90;;;;;;5031181;28;20430;-58
2021/08/04 00:20:07;;;;;;;8.70;3.17;;;13.20;99.90;;;;;;5028034;28;20438;-56
2021/08/04 00:22:34;;;;;;;3.73;3.03;;;13.20;99.90;;;;;;5042297;28;20431;-58
2021/08/04 00:24:59;;;;;;;7.13;3.10;;;13.20;99.90;;;;;;5017685;28;20455;-57
2021/08/04 00:27:28;;;;;;;5.40;2.93;;;13.30;99.90;;;;;;5027718;28;20469;-59
2021/08/04 00:29:55;;;;;;;6.43;2.53;;;13.30;99.90;;;;;;5028858;28;20583;-58
2021/08/04 00:32:24;;;;;;;5.27;3.67;;;13.30;99.90;;;;;;5029128;28;20438;-58
2021/08/04 00:34:50;;;;;;;4.57;3.17;;;13.30;99.90;;;;;;5026192;28;20738;-59
2021/08/04 00:37:17;;;;;;;4.53;3.27;;;13.30;99.90;;;;;;5035736;28;20437;-58
2021/08/04 00:39:43;;;;;;;4.30;2.90;;;13.30;99.90;;;;;;5028755;28;20923;-59
2021/08/04 00:42:09;;;;;;;4.13;3.07;;;13.30;99.90;;;;;;5026667;28;20427;-58
2021/08/04 00:44:35;;;;;;;6.40;3.03;;;13.30;99.90;;;;;;5022356;28;20442;-58
2021/08/04 00:47:01;;;;;;;7.40;3.03;;;13.30;99.90;;;;;;5028445;28;20517;-58
2021/08/04 00:49:29;;;;;;;3.50;2.90;;;13.30;99.90;;;;;;5029969;28;20309;-58
2021/08/04 00:51:54;;;;;;;7.63;3.27;;;13.30;99.90;;;;;;5026565;28;20443;-58
2021/08/04 00:54:20;;;;;;;5.13;3.27;;;13.30;99.90;;;;;;5023411;28;21055;-58
2021/08/04 00:56:46;;;;;;;4.67;3.20;;;13.30;99.90;;;;;;5032433;28;20290;-58
2021/08/04 00:59:13;;;;;;;5.03;3.23;;;13.20;99.90;;;;;;5028057;28;20172;-58
2021/08/04 01:01:42;;;;;;;4.93;3.40;;;13.30;99.90;;;;;;5033786;28;20179;-57
2021/08/04 01:04:16;;;;;;;4.23;3.10;;;13.20;99.90;;;;;;5025284;28;20538;-58
2021/08/04 01:07:22;;;;;;;6.30;3.10;;;13.20;99.90;;;;;;5027647;28;20425;-58
2021/08/04 01:10:15;;;;;;;3.80;3.27;;;13.20;99.90;;;;;;5024828;28;20433;-57
2021/08/04 01:12:45;;;;;;;8.13;3.03;;;13.20;99.90;;;;;;5027695;28;20442;-58
2021/08/04 01:15:12;;;;;;;5.80;3.00;;;13.20;99.90;;;;;;5030042;28;20451;-58
2021/08/04 01:17:46;;;;;;;8.50;3.10;;;13.20;99.90;;;;;;5033175;28;20430;-58
2021/08/04 01:20:13;;;;;;;5.70;2.80;;;13.20;99.90;;;;;;5032529;28;20937;-59
2021/08/04 01:22:56;;;;;;;4.07;2.80;;;13.20;99.90;;;;;;5028015;28;20430;-58
2021/08/04 01:25:28;;;;;;;5.70;3.40;;;13.20;99.90;;;;;;5027801;28;20443;-58
2021/08/04 01:28:23;;;;;;;6.07;3.60;;;13.20;99.90;;;;;;5027107;28;21185;-59
2021/08/04 01:30:52;;;;;;;4.93;2.70;;;13.20;99.90;;;;;;5028414;28;20984;-59
2021/08/04 01:33:18;;;;;;;4.10;3.30;;;13.10;99.90;;;;;;5041627;28;20830;-55
2021/08/04 01:35:45;;;;;;;4.37;3.33;;;13.10;99.90;;;;;;5037594;28;20520;-59
2021/08/04 01:38:17;;;;;;;4.97;3.30;;;13.10;99.90;;;;;;5027941;28;21209;-56
2021/08/04 01:40:46;;;;;;;3.77;3.00;;;13.10;99.90;;;;;;5038118;28;20528;-59
2021/08/04 01:43:12;;;;;;;4.07;3.10;;;13.10;99.90;;;;;;5043840;28;20524;-57
2021/08/04 01:45:40;;;;;;;6.63;3.00;;;13.10;99.90;;;;;;5036292;28;20433;-58
2021/08/04 01:48:07;;;;;;;6.27;3.63;;;13.10;99.90;;;;;;5033515;28;20438;-58
2021/08/04 01:50:35;;;;;;;4.93;3.17;;;13.10;99.90;;;;;;5039468;28;20459;-56
2021/08/04 01:53:01;;;;;;;5.40;3.47;;;13.10;99.90;;;;;;5031493;28;20491;-58
2021/08/04 01:55:27;;;;;;;4.30;3.40;;;13.00;99.90;;;;;;5043788;28;21038;-59
2021/08/04 01:57:52;;;;;;;4.53;3.00;;;13.00;99.90;;;;;;5044961;28;20431;-56
2021/08/04 02:00:18;;;;;;;3.80;3.40;;;13.00;99.90;;;;;;5039575;28;20180;-58
2021/08/04 02:02:44;;;;;;;5.13;3.33;;;13.00;99.90;;;;;;5034462;28;20285;-58
2021/08/04 02:05:10;;;;;;;4.90;3.63;;;12.90;99.90;;;;;;5036547;28;20211;-58
2021/08/04 02:08:09;;;;;;;8.20;3.27;;;12.90;99.90;;;;;;5034260;28;20180;-59
2021/08/04 02:11:03;;;;;;;19.30;3.33;;;12.90;99.90;;;;;;5032863;28;20553;-58
2021/08/04 02:13:53;;;;;;;4.30;3.13;;;12.90;99.90;;;;;;5025207;28;20972;-58
2021/08/04 02:16:33;;;;;;;3.87;3.20;;;12.90;99.90;;;;;;5030147;28;20465;-56
2021/08/04 02:19:27;;;;;;;5.87;3.50;;;12.90;99.90;;;;;;5029637;28;20436;-58
2021/08/04 02:22:14;;;;;;;4.50;3.33;;;12.90;99.90;;;;;;5003886;28;20422;-57
2021/08/04 02:24:46;;;;;;;5.03;3.43;;;12.90;99.90;;;;;;5024754;28;20531;-58
2021/08/04 02:27:13;;;;;;;3.43;3.13;;;12.90;99.90;;;;;;5025576;28;20553;-57
2021/08/04 02:29:42;;;;;;;5.40;3.40;;;12.90;99.90;;;;;;5036281;28;20790;-57
2021/08/04 02:32:08;;;;;;;3.87;3.47;;;12.80;99.90;;;;;;5036543;28;20423;-58
2021/08/04 02:34:34;;;;;;;4.43;3.70;;;12.80;99.90;;;;;;5028781;28;20449;-60
2021/08/04 02:37:00;;;;;;;5.47;3.50;;;12.80;99.90;;;;;;5032840;28;20441;-58
2021/08/04 02:39:29;;;;;;;6.17;3.40;;;12.80;99.90;;;;;;5034759;28;20668;-59
2021/08/04 02:41:54;;;;;;;6.03;3.80;;;12.80;99.90;;;;;;5024523;28;20439;-57
2021/08/04 02:44:21;;;;;;;9.53;3.20;;;12.80;99.90;;;;;;5035769;28;20464;-57
2021/08/04 02:46:48;;;;;;;3.50;3.20;;;12.80;99.90;;;;;;5031945;28;20848;-58
2021/08/04 02:49:17;;;;;;;4.90;3.80;;;12.80;99.90;;;;;;5029291;28;20548;-58
2021/08/04 02:51:43;;;;;;;5.27;3.77;;;12.80;99.90;;;;;;5037788;28;20883;-58
2021/08/04 02:54:12;;;;;;;7.30;3.37;;;12.80;99.90;;;;;;5035864;28;20466;-58
2021/08/04 02:56:38;;;;;;;4.53;2.90;;;12.80;99.90;;;;;;5032518;28;20431;-58
2021/08/04 02:59:04;;;;;;;4.60;3.57;;;12.70;99.90;;;;;;5027924;28;20449;-57
2021/08/04 03:01:29;;;;;;;5.33;3.60;;;12.80;99.90;;;;;;5032069;28;20450;-58
2021/08/04 03:03:58;;;;;;;3.90;3.47;;;12.80;99.90;;;;;;5027498;28;20680;-58
2021/08/04 03:06:23;;;;;;;8.00;3.40;;;12.80;99.90;;;;;;5031958;28;20208;-58
2021/08/04 03:08:49;;;;;;;5.30;3.90;;;12.80;99.90;;;;;;5029318;28;21076;-58
2021/08/04 03:11:15;;;;;;;5.40;3.30;;;12.70;99.90;;;;;;5028102;28;20202;-58
2021/08/04 03:13:40;;;;;;;7.10;4.00;;;12.70;99.90;;;;;;5017969;28;20243;-58
2021/08/04 03:16:07;;;;;;;10.53;4.20;;;12.70;99.90;;;;;;5025650;28;20180;-58
2021/08/04 03:18:32;;;;;;;4.83;3.67;;;12.70;99.90;;;;;;5032349;28;20179;-58
2021/08/04 03:20:58;;;;;;;5.70;3.60;;;12.70;99.90;;;;;;5036572;28;20435;-58
2021/08/04 03:23:24;;;;;;;6.47;4.60;;;12.70;99.90;;;;;;5028936;28;20180;-58
2021/08/04 03:25:50;;;;;;;9.80;5.90;;;12.70;99.90;;;;;;5035055;28;20187;-58
2021/08/04 03:28:15;;;;;;;4.77;3.87;;;12.70;99.90;;;;;;5020073;28;20184;-57
2021/08/04 03:30:44;;;;;;;7.63;3.83;;;12.70;99.90;;;;;;5036736;28;20269;-58
2021/08/04 03:33:09;;;;;;;6.90;4.10;;;12.70;99.90;;;;;;5034880;28;20183;-57
2021/08/04 03:35:35;;;;;;;6.87;4.50;;;12.70;99.90;;;;;;5031862;28;20429;-58
2021/08/04 03:38:01;;;;;;;8.47;4.13;;;12.70;99.90;;;;;;5028021;28;20180;-58
2021/08/04 03:40:27;;;;;;;7.30;3.97;;;12.70;99.90;;;;;;5033834;28;20202;-58
2021/08/04 03:42:53;;;;;;;6.93;4.17;;;12.70;99.90;;;;;;5028850;28;20892;-58
2021/08/04 03:45:18;;;;;;;7.90;4.03;;;12.70;99.90;;;;;;5033488;28;20774;-58
2021/08/04 03:47:44;;;;;;;5.47;3.60;;;12.70;99.90;;;;;;5029500;28;20237;-58
2021/08/04 03:50:10;;;;;;;6.80;3.90;;;12.70;99.90;;;;;;5027031;28;20747;-58
2021/08/04 03:52:36;;;;;;;8.10;3.80;;;12.70;99.90;;;;;;5023837;28;20172;-59
2021/08/04 03:55:03;;;;;;;5.93;4.00;;;12.70;99.90;;;;;;5028955;28;21036;-58
2021/08/04 03:57:29;;;;;;;8.03;3.80;;;12.70;99.90;;;;;;5028240;28;20659;-58
2021/08/04 03:59:54;;;;;;;5.27;4.10;;;12.70;99.90;;;;;;5032145;28;20433;-58
2021/08/04 04:02:20;;;;;;;5.73;3.63;;;12.70;99.90;;;;;;5023315;28;20438;-58
2021/08/04 04:04:45;;;;;;;6.00;4.00;;;12.70;99.90;;;;;;5026785;28;20541;-58
2021/08/04 04:07:12;;;;;;;6.73;4.00;;;12.70;99.90;;;;;;5016557;28;20267;-58
2021/08/04 04:09:38;;;;;;;7.00;4.07;;;12.70;99.90;;;;;;5023319;28;20267;-58
2021/08/04 04:12:04;;;;;;;4.30;3.80;;;12.70;99.90;;;;;;5030809;28;20900;-58
2021/08/04 04:14:30;;;;;;;10.43;4.17;;;12.80;99.90;;;;;;5018522;28;20192;-58
2021/08/04 04:16:55;;;;;;;5.70;4.20;;;12.80;99.90;;;;;;5029169;28;20517;-56
2021/08/04 04:19:21;;;;;;;6.67;4.20;;;12.80;99.90;;;;;;5023321;28;20187;-57
2021/08/04 04:21:47;;;;;;;6.77;3.80;;;12.80;99.90;;;;;;5026579;28;20239;-57
2021/08/04 04:24:13;;;;;;;5.60;3.93;;;12.80;99.90;;;;;;5026786;28;20204;-59
2021/08/04 04:26:38;;;;;;;6.50;4.30;;;12.80;99.90;;;;;;5025524;28;20172;-59
2021/08/04 04:29:04;;;;;;;9.37;5.00;;;12.80;99.90;;;;;;5021802;28;20264;-59
2021/08/04 04:31:30;;;;;;;6.03;3.73;;;12.80;99.90;;;;;;5029483;28;20207;-59
2021/08/04 04:33:55;;;;;;;5.70;4.57;;;12.80;99.90;;;;;;5028521;28;20207;-58
2021/08/04 04:36:22;;;;;;;9.57;3.97;;;12.80;99.90;;;;;;5022121;28;20184;-59
2021/08/04 04:38:47;;;;;;;8.07;4.30;;;12.80;99.90;;;;;;5025449;28;20187;-59
2021/08/04 04:41:13;;;;;;;5.57;3.57;;;12.80;99.90;;;;;;5027711;28;20884;-59
2021/08/04 04:43:41;;;;;;;11.03;4.37;;;12.80;99.90;;;;;;5028885;28;20203;-63
2021/08/04 04:46:07;;;;;;;4.33;3.93;;;12.80;99.90;;;;;;5022342;28;20617;-59
2021/08/04 04:48:33;;;;;;;5.30;4.20;;;12.80;99.90;;;;;;5026666;28;20525;-59
2021/08/04 04:50:58;;;;;;;5.73;4.03;;;12.80;99.90;;;;;;5024858;28;20545;-60
2021/08/04 04:53:24;;;;;;;7.23;5.33;;;12.90;99.90;;;;;;5021303;28;20199;-59
2021/08/04 04:55:50;;;;;;;7.50;4.90;;;12.80;99.90;;;;;;5026729;28;20187;-59
2021/08/04 04:58:15;;;;;;;8.03;3.80;;;12.90;99.90;;;;;;5025924;28;20210;-59
2021/08/04 05:00:41;;;;;;;7.03;4.30;;;12.90;99.90;;;;;;5023927;28;20179;-61
2021/08/04 05:03:06;;;;;;;6.70;4.80;;;12.90;99.90;;;;;;5022230;28;20370;-59
2021/08/04 05:05:32;;;;;;;5.40;4.20;;;12.90;99.90;;;;;;5024169;28;20599;-59
2021/08/04 05:07:57;;;;;;;5.17;4.53;;;12.80;99.90;;;;;;5023639;28;20179;-59
2021/08/04 05:10:23;;;;;;;4.40;3.80;;;12.90;99.90;;;;;;5021534;28;20265;-62
2021/08/04 05:12:49;;;;;;;6.80;4.17;;;12.90;99.90;;;;;;5019538;28;20238;-58
2021/08/04 05:15:15;;;;;;;8.20;4.20;;;12.90;99.90;;;;;;5030690;28;20202;-59
2021/08/04 05:17:40;;;;;;;6.87;4.70;;;12.90;99.90;;;;;;5024607;28;20257;-58
2021/08/04 05:20:08;;;;;;;9.90;4.90;;;12.90;99.90;;;;;;5025142;28;20211;-59
2021/08/04 05:22:34;;;;;;;6.20;4.20;;;12.90;99.90;;;;;;5025512;28;20192;-60
2021/08/04 05:24:59;;;;;;;8.23;4.80;;;13.00;99.90;;;;;;5030134;28;20450;-58
2021/08/04 05:27:25;;;;;;;7.10;4.40;;;13.00;99.90;;;;;;5030645;28;20705;-59
2021/08/04 05:29:51;;;;;;;5.60;4.63;;;13.00;99.90;;;;;;5024668;28;20179;-58
2021/08/04 05:32:16;;;;;;;8.07;4.83;;;13.00;99.90;;;;;;5039040;28;20176;-59
2021/08/04 05:34:42;;;;;;;6.53;4.10;;;13.00;99.90;;;;;;5027307;28;20191;-60
2021/08/04 05:37:07;;;;;;;6.47;4.27;;;13.00;99.90;;;;;;5034271;28;20172;-58
2021/08/04 05:39:33;;;;;;;18.23;5.57;;;13.00;99.90;;;;;;5031758;28;20164;-58
2021/08/04 05:41:59;;;;;;;6.20;5.10;;;13.00;99.90;;;;;;5030179;28;20191;-59
2021/08/04 05:44:25;;;;;;;6.40;4.47;;;13.00;99.90;;;;;;5024345;28;20246;-61
2021/08/04 05:46:51;;;;;;;8.03;4.67;;;13.00;99.90;;;;;;5028179;28;20207;-60
2021/08/04 05:49:16;;;;;;;7.80;5.40;;;13.00;99.90;;;;;;5020536;28;21036;-59
2021/08/04 05:51:42;;;;;;;12.83;5.50;;;13.00;99.90;;;;;;5024292;28;20776;-58
2021/08/04 05:54:08;;;;;;;7.37;4.40;;;13.00;99.90;;;;;;5022053;28;20710;-58
2021/08/04 05:56:33;;;;;;;5.33;4.27;;;13.00;99.90;;;;;;5025325;28;20175;-59
2021/08/04 05:58:59;;;;;;;6.50;4.93;;;13.10;99.90;;;;;;5039071;28;20524;-61
2021/08/04 06:01:25;;;;;;;6.83;4.17;;;13.10;99.90;;;;;;5022496;28;20185;-58
2021/08/04 06:03:50;;;;;;;8.53;4.90;;;13.20;99.90;;;;;;5026559;28;20900;-59
2021/08/04 06:06:16;;;;;;;9.87;3.87;;;13.30;99.90;;;;;;5018842;28;20659;-59
2021/08/04 06:08:41;;;;;;;5.43;4.60;;;13.30;99.90;;;;;;5023700;28;20262;-60
2021/08/04 06:11:07;;;;;;;8.93;4.30;;;13.40;99.90;;;;;;5019776;28;20603;-59
2021/08/04 06:13:33;;;;;;;5.53;4.37;;;13.40;99.90;;;;;;5024214;28;20187;-59
2021/08/04 06:15:59;;;;;;;6.80;4.53;;;13.40;99.90;;;;;;5029546;28;20168;-58
2021/08/04 06:18:24;;;;;;;7.03;4.57;;;13.40;99.90;;;;;;5026275;28;20183;-59
2021/08/04 06:20:50;;;;;;;9.83;4.60;;;13.50;99.90;;;;;;5030504;28;20245;-60
2021/08/04 06:23:16;;;;;;;7.63;4.50;;;13.50;99.90;;;;;;5040128;28;20188;-59
2021/08/04 06:25:41;;;;;;;5.23;4.10;;;13.50;99.90;;;;;;5029273;28;20273;-58
2021/08/04 06:28:07;;;;;;;6.40;3.90;;;13.50;99.90;;;;;;5030330;28;20199;-58
2021/08/04 06:30:33;;;;;;;10.83;3.90;;;13.50;99.90;;;;;;5031504;28;20192;-59
2021/08/04 06:32:58;;;;;;;5.87;3.27;;;13.60;99.90;;;;;;5028664;28;20184;-60
2021/08/04 06:35:24;;;;;;;5.27;3.57;;;13.60;99.90;;;;;;5022639;28;20199;-59
2021/08/04 06:37:50;;;;;;;5.40;3.70;;;13.60;99.90;;;;;;5031069;28;20898;-60
2021/08/04 06:40:16;;;;;;;6.83;3.40;;;13.70;99.90;;;;;;5024266;28;20327;-59
2021/08/04 06:42:42;;;;;;;4.67;3.87;;;13.70;99.90;;;;;;5030665;28;20507;-59
2021/08/04 06:45:08;;;;;;;5.03;3.40;;;13.80;99.90;;;;;;5034211;28;20195;-59
2021/08/04 06:47:34;;;;;;;5.70;4.30;;;13.80;99.90;;;;;;5029913;28;20687;-59
2021/08/04 06:50:00;;;;;;;3.40;3.10;;;14.00;99.90;;;;;;5023166;28;20437;-55
2021/08/04 06:52:25;;;;;;;5.53;3.30;;;14.00;99.90;;;;;;5026991;28;20163;-57
2021/08/04 06:54:51;;;;;;;5.60;3.30;;;14.10;99.90;;;;;;5021613;28;20200;-60
2021/08/04 06:57:17;;;;;;;6.40;3.67;;;14.20;99.90;;;;;;5028136;28;20191;-61
2021/08/04 06:59:42;;;;;;;6.73;4.23;;;14.30;99.90;;;;;;5027391;28;20507;-60
2021/08/04 07:02:08;;;;;;;4.90;3.30;;;14.30;99.90;;;;;;5027193;28;20172;-59
2021/08/04 07:04:34;;;;;;;6.23;3.20;;;14.40;99.90;;;;;;5022662;28;20219;-58
2021/08/04 07:07:01;;;;;;;3.93;3.00;;;14.40;99.90;;;;;;5031256;28;20557;-58
2021/08/04 07:09:27;;;;;;;3.77;3.00;;;14.40;99.90;;;;;;5036466;28;20267;-58
2021/08/04 07:11:54;;;;;;;4.83;3.43;;;14.40;99.90;;;;;;5026803;28;20466;-60
2021/08/04 07:14:19;;;;;;;5.00;3.60;;;14.40;99.90;;;;;;5027982;28;20988;-61
2021/08/04 07:16:46;;;;;;;5.83;3.90;;;14.50;99.90;;;;;;5012101;28;20505;-59
2021/08/04 07:19:12;;;;;;;4.80;3.30;;;14.50;99.90;;;;;;5022954;28;20169;-60
2021/08/04 07:21:39;;;;;;;3.07;2.70;;;14.50;99.90;;;;;;5024104;28;20461;-59
2021/08/04 07:24:06;;;;;;;5.07;3.90;;;14.50;99.90;;;;;;5021727;28;20665;-59
2021/08/04 07:26:32;;;;;;;5.43;3.50;;;14.50;99.90;;;;;;5020551;28;21075;-59
2021/08/04 07:28:57;;;;;;;7.50;3.70;;;14.50;99.90;;;;;;5024532;28;21175;-59
2021/08/04 07:31:24;;;;;;;5.73;3.53;;;14.40;99.90;;;;;;5022606;28;20211;-60
2021/08/04 07:33:51;;;;;;;5.37;3.80;;;14.40;99.90;;;;;;5021285;28;20206;-61
2021/08/04 07:36:17;;;;;;;4.40;3.00;;;14.40;99.90;;;;;;5021713;28;21269;-59
2021/08/04 07:38:42;;;;;;;5.90;3.43;;;14.40;99.90;;;;;;5020997;28;20539;-60
2021/08/04 07:41:08;;;;;;;4.90;3.20;;;14.50;99.90;;;;;;5026121;28;20438;-60
2021/08/04 07:43:34;;;;;;;5.50;3.30;;;14.60;99.90;;;;;;5020986;28;22156;-59
2021/08/04 07:45:59;;;;;;;3.30;2.90;;;14.70;99.90;;;;;;5021316;28;20893;-60
2021/08/04 07:48:27;;;;;;;5.87;3.10;;;14.90;99.90;;;;;;5020097;28;20187;-60
2021/08/04 07:50:53;;;;;;;3.30;2.50;;;15.00;99.90;;;;;;5028629;28;20237;-62
2021/08/04 07:53:19;;;;;;;9.50;3.20;;;15.10;99.90;;;;;;5026808;28;20512;-59
2021/08/04 07:55:44;;;;;;;3.27;2.80;;;15.20;99.90;;;;;;5035662;28;20191;-60
2021/08/04 07:58:10;;;;;;;3.53;3.10;;;15.20;99.90;;;;;;5029198;28;20175;-61
2021/08/04 08:00:35;;;;;;;3.73;3.00;;;15.30;99.90;;;;;;5027132;28;20190;-60
2021/08/04 08:03:02;;;;;;;8.17;2.87;;;15.30;99.90;;;;;;5023487;28;20180;-60
2021/08/04 08:05:27;;;;;;;3.80;3.03;;;15.40;99.90;;;;;;5020545;28;20246;-60
2021/08/04 08:07:53;;;;;;;3.60;3.20;;;15.40;99.90;;;;;;5017695;28;20528;-59
2021/08/04 08:10:21;;;;;;;3.70;2.60;;;15.40;99.90;;;;;;5018522;28;20203;-60
2021/08/04 08:12:47;;;;;;;4.13;2.70;;;15.40;99.90;;;;;;5021747;28;20187;-60
2021/08/04 08:15:13;;;;;;;4.60;2.60;;;15.40;99.90;;;;;;5021863;28;22133;-58
2021/08/04 08:17:39;;;;;;;4.30;3.00;;;15.40;99.90;;;;;;5021827;28;20493;-59
2021/08/04 08:20:05;;;;;;;3.37;2.80;;;15.30;99.90;;;;;;5024313;28;20526;-59
2021/08/04 08:22:31;;;;;;;3.50;2.60;;;15.30;99.90;;;;;;5023897;28;20179;-60
2021/08/04 08:24:57;;;;;;;3.50;2.67;;;15.20;99.90;;;;;;5023683;28;20454;-59
2021/08/04 08:27:22;;;;;;;4.97;2.97;;;15.20;99.90;;;;;;5024791;28;20263;-61
2021/08/04 08:29:48;;;;;;;4.20;2.90;;;15.20;99.90;;;;;;5022176;28;20271;-58
2021/08/04 08:32:14;;;;;;;5.27;2.60;;;15.30;99.90;;;;;;5021617;28;20211;-59
2021/08/04 08:34:39;;;;;;;3.07;2.50;;;15.30;99.90;;;;;;5022835;28;20623;-59
2021/08/04 08:37:05;;;;;;;3.60;2.90;;;15.40;99.90;;;;;;5024878;28;20175;-59
2021/08/04 08:39:32;;;;;;;3.40;2.53;;;15.50;99.90;;;;;;5023377;28;20199;-59
2021/08/04 08:41:59;;;;;;;3.93;2.63;;;15.50;99.90;;;;;;5025110;28;20337;-59
2021/08/04 08:44:25;;;;;;;2.80;2.40;;;15.60;99.90;;;;;;5010121;28;20454;-59
2021/08/04 08:46:51;;;;;;;6.10;3.00;;;15.70;99.90;;;;;;5019127;28;20430;-59
2021/08/04 08:49:26;;;;;;;3.83;2.23;;;15.90;99.90;;;;;;5024293;28;20900;-59
2021/08/04 08:51:51;;;;;;;2.97;2.50;;;15.90;99.90;;;;;;5023656;28;20624;-59
2021/08/04 08:54:17;;;;;;;3.03;2.57;;;15.90;99.90;;;;;;5021007;28;21108;-59
2021/08/04 08:56:43;;;;;;;2.53;2.33;;;16.10;99.90;;;;;;5024563;28;20174;-59
2021/08/04 08:59:09;;;;;;;3.00;2.70;;;16.20;99.90;;;;;;5019554;28;20639;-58
2021/08/04 09:01:39;;;;;;;3.27;2.30;;;16.30;99.90;;;;;;5027350;28;20437;-59
2021/08/04 09:04:09;;;;;;;3.43;2.80;;;16.40;99.90;;;;;;5024392;28;20508;-59
2021/08/04 09:07:01;;;;;;;5.50;2.30;;;16.50;99.90;;;;;;5030040;28;20492;-59
2021/08/04 09:09:32;;;;;;;2.23;2.03;;;16.60;99.90;;;;;;5031501;28;20434;-59
2021/08/04 09:12:09;;;;;;;2.83;2.57;;;16.70;99.90;;;;;;5022777;28;20966;-58
2021/08/04 09:14:36;;;;;;;3.80;3.00;;;16.80;99.90;;;;;;5021573;28;20508;-58
2021/08/04 09:17:11;;;;;;;2.40;2.20;;;16.80;99.90;;;;;;5028568;28;20427;-58
2021/08/04 09:19:39;;;;;;;2.40;1.97;;;16.90;99.90;;;;;;5027518;28;20464;-60
2021/08/04 09:22:20;;;;;;;4.97;2.67;;;16.90;99.60;;;;;;5026834;28;20427;-61
2021/08/04 09:25:01;;;;;;;4.37;2.67;;;16.90;99.00;;;;;;5025279;28;20453;-59
2021/08/04 09:27:50;;;;;;;3.90;2.93;;;16.80;98.20;;;;;;5022194;28;20430;-58
2021/08/04 09:30:29;;;;;;;2.17;1.97;;;16.70;99.30;;;;;;5024956;28;20465;-59
2021/08/04 09:33:16;;;;;;;2.53;2.33;;;16.60;99.50;;;;;;5022652;28;20816;-60
2021/08/04 09:35:48;;;;;;;2.50;2.30;;;16.50;99.90;;;;;;5035116;28;20527;-59
2021/08/04 09:38:14;;;;;;;2.30;1.90;;;16.60;99.90;;;;;;5021531;28;20422;-60
2021/08/04 09:40:40;;;;;;;4.93;2.50;;;16.60;99.90;;;;;;5022647;28;20772;-60
2021/08/04 09:43:06;;;;;;;2.37;2.10;;;16.60;99.90;;;;;;5027091;28;20497;-60
2021/08/04 09:45:41;;;;;;;3.77;1.80;;;16.70;99.90;;;;;;5025833;28;20448;-59
2021/08/04 09:48:12;;;;;;;2.13;2.03;;;16.80;99.80;;;;;;5020155;28;20660;-58
2021/08/04 09:51:03;;;;;;;2.33;2.13;;;16.80;99.70;;;;;;5029251;28;20497;-57
2021/08/04 09:53:34;;;;;;;3.40;1.80;;;16.90;98.30;;;;;;5033282;28;20446;-59
2021/08/04 09:56:14;;;;;;;2.70;2.00;;;16.90;98.40;;;;;;5022067;28;20453;-57
2021/08/04 09:58:45;;;;;;;2.43;2.20;;;17.00;97.40;;;;;;5031597;28;20422;-58
2021/08/04 10:01:14;;;;;;;1.93;1.77;;;17.00;98.10;;;;;;5032087;28;20517;-59
2021/08/04 10:03:59;;;;;;;2.70;2.13;;;17.10;98.20;;;;;;5018783;28;20454;-58
2021/08/04 10:06:25;;;;;;;3.80;2.17;;;17.30;97.80;;;;;;5035028;28;20425;-58
2021/08/04 10:08:51;;;;;;;2.10;1.90;;;17.30;96.50;;;;;;5025487;28;20437;-58
2021/08/04 10:11:18;;;;;;;3.93;2.43;;;17.30;95.60;;;;;;5027770;28;20208;-59
2021/08/04 10:13:44;;;;;;;1.97;1.83;;;17.30;97.10;;;;;;5021993;28;20462;-59
2021/08/04 10:16:10;;;;;;;2.33;1.80;;;17.40;97.10;;;;;;5032020;28;21013;-58
2021/08/04 10:18:39;;;;;;;2.13;1.90;;;17.40;98.20;;;;;;5032170;28;20545;-60
2021/08/04 10:21:11;;;;;;;2.00;1.90;;;17.50;97.50;;;;;;5043772;28;20498;-59
2021/08/04 10:23:38;;;;;;;3.53;2.27;;;17.60;96.00;;;;;;5025757;28;20867;-58
2021/08/04 10:26:09;;;;;;;2.80;2.13;;;17.60;96.00;;;;;;5030149;28;20441;-59
2021/08/04 10:28:35;;;;;;;2.23;1.87;;;17.60;96.20;;;;;;5027238;28;20461;-60
2021/08/04 10:31:02;;;;;;;2.67;2.03;;;17.70;95.80;;;;;;5024744;28;20810;-61
2021/08/04 10:33:29;;;;;;;4.83;1.60;;;17.80;95.70;;;;;;5041619;28;20433;-60
2021/08/04 10:36:01;;;;;;;2.77;1.80;;;17.80;95.50;;;;;;5038006;28;20442;-59
2021/08/04 10:38:28;;;;;;;4.33;2.60;;;17.80;96.10;;;;;;5016191;28;20503;-59
2021/08/04 10:41:16;;;;;;;4.60;2.20;;;17.90;96.60;;;;;;5032063;28;20492;-59
2021/08/04 10:43:44;;;;;;;2.23;2.00;;;18.00;96.10;;;;;;5020815;28;20534;-61
2021/08/04 10:46:28;;;;;;;2.47;1.90;;;18.00;96.70;;;;;;5028126;28;20537;-55
2021/08/04 10:49:18;;;;;;;2.00;1.63;;;18.10;96.70;;;;;;5028286;28;20431;-55
2021/08/04 10:51:59;;;;;;;2.50;2.10;;;18.10;95.40;;;;;;5025850;28;20466;-59
2021/08/04 10:54:25;;;;;;;1.97;1.87;;;18.00;94.90;;;;;;5026431;28;20552;-57
2021/08/04 10:56:50;;;;;;;2.83;2.07;;;18.00;95.60;;;;;;5028191;28;20521;-59
2021/08/04 10:59:29;;;;;;;2.50;2.10;;;17.90;96.00;;;;;;5027112;28;20325;-57
2021/08/04 11:02:04;;;;;;;2.13;1.90;;;17.90;96.50;;;;;;5027243;28;20218;-57
2021/08/04 11:04:29;;;;;;;1.80;1.70;;;17.80;97.10;;;;;;5024035;28;20953;-57
2021/08/04 11:07:16;;;;;;;2.37;2.00;;;17.90;97.50;;;;;;5028278;28;20460;-59
2021/08/04 11:09:51;;;;;;;2.63;1.70;;;17.90;97.50;;;;;;5027915;28;20298;-56
2021/08/04 11:12:35;;;;;;;2.27;1.90;;;17.90;97.40;;;;;;5022974;28;20461;-55
2021/08/04 11:15:02;;;;;;;1.77;1.60;;;17.90;96.70;;;;;;5024264;28;20449;-55
2021/08/04 11:17:31;;;;;;;2.80;2.13;;;17.90;96.70;;;;;;5025283;28;20422;-59
2021/08/04 11:20:02;;;;;;;2.73;1.50;;;17.90;96.40;;;;;;5029554;28;20465;-59
2021/08/04 11:22:39;;;;;;;2.60;1.83;;;18.00;96.10;;;;;;5023982;28;20418;-60
2021/08/04 11:25:13;;;;;;;2.97;1.80;;;17.90;94.60;;;;;;5029348;28;20500;-59
2021/08/04 11:27:45;;;;;;;2.27;1.90;;;17.90;94.40;;;;;;5024113;28;20422;-58
2021/08/04 11:30:12;;;;;;;5.90;1.67;;;17.90;95.60;;;;;;5038663;28;20430;-59
2021/08/04 11:32:38;;;;;;;2.50;1.90;;;17.80;96.30;;;;;;5028021;28;20958;-59
2021/08/04 11:35:18;;;;;;;4.77;2.10;;;17.80;96.60;;;;;;5018801;28;20454;-59
2021/08/04 11:37:44;;;;;;;1.90;1.70;;;17.80;97.20;;;;;;5021983;28;20734;-57
2021/08/04 11:40:11;;;;;;;2.27;2.07;;;17.80;97.50;;;;;;5024262;28;20906;-60
2021/08/04 11:42:38;;;;;;;4.93;2.60;;;17.80;97.50;;;;;;5024815;28;20434;-56
2021/08/04 11:45:09;;;;;;;2.57;2.00;;;17.80;97.70;;;;;;5022494;28;20450;-58
2021/08/04 11:47:36;;;;;;;2.50;2.30;;;17.80;97.90;;;;;;5021694;28;20430;-58
2021/08/04 11:50:05;;;;;;;2.80;2.23;;;17.80;98.70;;;;;;5025158;28;20426;-59
2021/08/04 11:52:32;;;;;;;3.90;2.30;;;17.70;97.70;;;;;;5025087;28;20434;-59
2021/08/04 11:55:10;;;;;;;4.13;2.23;;;17.70;97.70;;;;;;5028522;28;20484;-58
2021/08/04 11:57:48;;;;;;;2.40;2.00;;;17.60;97.60;;;;;;5029098;28;20431;-59
2021/08/04 12:00:23;;;;;;;3.00;2.30;;;17.50;98.60;;;;;;5027760;28;20480;-59
2021/08/04 12:02:48;;;;;;;2.30;2.00;;;17.50;98.10;;;;;;5032994;28;20437;-59
2021/08/04 12:05:17;;;;;;;3.70;2.00;;;17.50;98.40;;;;;;5027157;28;21056;-59
2021/08/04 12:07:44;;;;;;;4.73;2.00;;;17.50;98.80;;;;;;5031279;28;20233;-58
2021/08/04 12:10:14;;;;;;;2.80;2.10;;;17.50;98.70;;;;;;5031341;28;20475;-59
2021/08/04 12:12:42;;;;;;;2.20;2.00;;;17.50;98.50;;;;;;5035330;28;20946;-59
2021/08/04 12:15:21;;;;;;;2.70;2.50;;;17.50;99.50;;;;;;5028717;28;20457;-59
2021/08/04 12:17:51;;;;;;;2.60;2.40;;;17.40;99.30;;;;;;5027806;28;20447;-55
2021/08/04 12:20:19;;;;;;;2.63;2.17;;;17.40;99.70;;;;;;5022562;28;20434;-58
2021/08/04 12:22:59;;;;;;;6.83;2.47;;;17.40;99.30;;;;;;5027483;28;20935;-59
2021/08/04 12:25:25;;;;;;;2.50;2.20;;;17.30;99.70;;;;;;5022513;28;20462;-60
2021/08/04 12:27:53;;;;;;;3.53;2.60;;;17.30;99.80;;;;;;5029175;28;20434;-58
2021/08/04 12:30:26;;;;;;;3.70;2.23;;;17.30;99.90;;;;;;5028616;28;22418;-58
2021/08/04 12:33:14;;;;;;;2.87;2.43;;;17.20;99.90;;;;;;5028496;28;20480;-58
2021/08/04 12:36:05;;;;;;;4.60;3.90;;;17.20;99.90;;;;;;5018148;28;20495;-57
2021/08/04 12:38:33;;;;;;;3.50;2.10;;;17.30;99.90;;;;;;5029230;28;21077;-58
2021/08/04 12:41:02;;;;;;;4.50;2.70;;;17.20;99.90;;;;;;5030401;28;20488;-60
2021/08/04 12:43:34;;;;;;;3.27;2.60;;;17.20;99.90;;;;;;5021384;28;20441;-60
2021/08/04 12:46:02;;;;;;;5.40;2.37;;;17.20;99.90;;;;;;5023536;28;20430;-59
2021/08/04 12:48:34;;;;;;;3.33;2.30;;;17.20;99.90;;;;;;5031411;28;20437;-58
2021/08/04 12:51:01;;;;;;;3.80;2.67;;;17.20;99.80;;;;;;5031030;28;20462;-59
2021/08/04 12:53:38;;;;;;;3.00;2.50;;;17.10;99.60;;;;;;5018778;28;20495;-60